createdAt,value
2023-04-26T00:00:32.175Z,4.60
2023-04-26T00:03:00.234Z,7.90
2023-04-26T00:05:29.727Z,4.90
2023-04-26T00:07:57.017Z,7.30
2023-04-26T00:10:23.976Z,6.90
2023-04-26T00:12:50.926Z,6.50
2023-04-26T00:15:17.878Z,6.00
2023-04-26T00:17:44.804Z,8.40
2023-04-26T00:20:13.662Z,6.90
2023-04-26T00:22:41.009Z,8.10
2023-04-26T00:25:08.597Z,6.20
2023-04-26T00:27:35.621Z,8.10
2023-04-26T00:30:03.496Z,6.40
2023-04-26T00:32:31.428Z,5.50
2023-04-26T00:34:58.267Z,9.00
2023-04-26T00:37:25.175Z,7.70
2023-04-26T00:39:52.044Z,8.00
2023-04-26T00:42:19.760Z,5.40
2023-04-26T00:44:46.714Z,5.20
2023-04-26T00:47:13.680Z,7.40
2023-04-26T00:49:40.802Z,10.10
2023-04-26T00:52:07.777Z,8.50
2023-04-26T00:54:34.634Z,7.00
2023-04-26T00:57:01.536Z,14.10
2023-04-26T00:59:28.828Z,8.70
2023-04-26T01:01:56.495Z,7.00
2023-04-26T01:04:27.712Z,8.70
2023-04-26T01:06:56.519Z,6.20
2023-04-26T01:09:23.615Z,7.20
2023-04-26T01:11:51.880Z,8.40
2023-04-26T01:14:18.747Z,5.90
2023-04-26T01:16:47.137Z,11.40
2023-04-26T01:19:15.263Z,8.10
2023-04-26T01:21:42.744Z,9.70
2023-04-26T01:24:10.262Z,6.20
2023-04-26T01:26:46.921Z,6.40
2023-04-26T01:29:18.201Z,6.70
2023-04-26T01:31:45.583Z,6.40
2023-04-26T01:34:12.650Z,9.30
2023-04-26T01:36:39.766Z,7.60
2023-04-26T01:39:08.085Z,7.90
2023-04-26T01:41:35.343Z,6.90
2023-04-26T01:44:02.233Z,9.80
2023-04-26T01:46:29.275Z,8.30
2023-04-26T01:48:57.529Z,6.60
2023-04-26T01:51:24.594Z,7.50
2023-04-26T01:53:51.549Z,9.00
2023-04-26T01:56:19.801Z,9.80
2023-04-26T01:58:46.656Z,5.60
2023-04-26T02:01:13.823Z,4.90
2023-04-26T02:03:40.964Z,4.40
2023-04-26T02:06:08.042Z,7.60
2023-04-26T02:08:36.117Z,11.80
2023-04-26T02:11:03.069Z,9.50
2023-04-26T02:13:30.342Z,6.60
2023-04-26T02:15:57.353Z,7.70
2023-04-26T02:18:24.770Z,8.30
2023-04-26T02:20:51.649Z,5.40
2023-04-26T02:23:19.448Z,6.20
2023-04-26T02:25:47.337Z,9.00
2023-04-26T02:28:14.896Z,6.90
2023-04-26T02:30:42.556Z,4.90
2023-04-26T02:33:09.914Z,5.10
2023-04-26T02:35:39.785Z,8.30
2023-04-26T02:38:07.024Z,5.00
2023-04-26T02:40:33.989Z,5.00
2023-04-26T02:43:01.814Z,4.60
2023-04-26T02:45:28.711Z,9.00
2023-04-26T02:47:55.895Z,5.60
2023-04-26T02:50:23.072Z,7.50
2023-04-26T02:52:50.232Z,6.90
2023-04-26T02:55:17.496Z,6.60
2023-04-26T02:57:44.646Z,5.80
2023-04-26T03:00:14.292Z,7.50
2023-04-26T03:02:42.077Z,10.80
2023-04-26T03:05:09.862Z,5.90
2023-04-26T03:07:37.409Z,6.10
2023-04-26T03:10:05.591Z,5.70
2023-04-26T03:12:32.696Z,6.10
2023-04-26T03:15:00.396Z,7.70
2023-04-26T03:17:27.446Z,6.20
2023-04-26T03:19:54.678Z,7.60
2023-04-26T03:22:21.664Z,5.90
2023-04-26T03:24:49.297Z,7.10
2023-04-26T03:27:16.779Z,6.60
2023-04-26T03:29:44.389Z,7.50
2023-04-26T03:32:11.683Z,6.20
2023-04-26T03:34:38.737Z,7.00
2023-04-26T03:37:05.912Z,7.70
2023-04-26T03:39:32.867Z,6.90
2023-04-26T03:42:01.342Z,6.90
2023-04-26T03:44:30.490Z,5.70
2023-04-26T03:46:58.218Z,5.30
2023-04-26T03:49:25.262Z,8.00
2023-04-26T03:51:52.174Z,5.40
2023-04-26T03:54:19.469Z,7.10
2023-04-26T03:56:46.516Z,4.40
2023-04-26T03:59:14.932Z,7.60
2023-04-26T04:01:42.978Z,7.50
2023-04-26T04:04:10.364Z,7.10
2023-04-26T04:06:39.539Z,7.60
2023-04-26T04:09:06.389Z,7.60
2023-04-26T04:11:33.308Z,10.40
2023-04-26T04:14:00.381Z,10.70
2023-04-26T04:16:27.978Z,4.80
2023-04-26T04:18:56.140Z,6.50
2023-04-26T04:21:23.103Z,4.90
2023-04-26T04:23:50.454Z,7.90
2023-04-26T04:26:17.665Z,6.90
2023-04-26T04:28:45.807Z,5.40
2023-04-26T04:31:13.511Z,7.70
2023-04-26T04:33:40.775Z,6.30
2023-04-26T04:36:08.572Z,5.30
2023-04-26T04:38:36.272Z,10.70
2023-04-26T04:41:04.872Z,7.60
2023-04-26T04:43:33.149Z,5.40
2023-04-26T04:46:00.225Z,7.40
2023-04-26T04:48:27.082Z,7.10
2023-04-26T04:50:55.694Z,11.60
2023-04-26T04:53:22.554Z,8.30
2023-04-26T04:55:49.440Z,6.30
2023-04-26T04:58:16.957Z,8.00
2023-04-26T05:00:45.876Z,7.70
2023-04-26T05:03:23.799Z,6.40
2023-04-26T05:05:51.187Z,8.40
2023-04-26T05:08:18.108Z,12.10
2023-04-26T05:10:45.918Z,8.30
2023-04-26T05:13:12.920Z,8.20
2023-04-26T05:15:40.240Z,6.50
2023-04-26T05:18:07.979Z,5.50
2023-04-26T05:20:35.010Z,6.40
2023-04-26T05:23:01.956Z,6.70
2023-04-26T05:25:29.039Z,5.80
2023-04-26T05:28:03.455Z,9.10
2023-04-26T05:30:51.304Z,8.00
2023-04-26T05:33:28.864Z,8.10
2023-04-26T05:36:05.239Z,7.90
2023-04-26T05:38:32.225Z,6.40
2023-04-26T05:40:59.281Z,12.00
2023-04-26T05:43:26.533Z,12.50
2023-04-26T05:45:54.445Z,8.40
2023-04-26T05:48:22.423Z,11.70
2023-04-26T05:50:50.091Z,7.80
2023-04-26T05:53:17.711Z,8.80
2023-04-26T05:55:44.687Z,6.90
2023-04-26T05:58:11.572Z,9.30
2023-04-26T06:00:42.677Z,10.00
2023-04-26T06:03:09.767Z,6.40
2023-04-26T06:05:41.593Z,11.10
2023-04-26T06:08:09.122Z,9.00
2023-04-26T06:10:36.027Z,9.40
2023-04-26T06:13:04.136Z,10.10
2023-04-26T06:15:32.723Z,11.50
2023-04-26T06:18:00.088Z,9.10
2023-04-26T06:20:27.893Z,8.00
2023-04-26T06:22:54.930Z,12.40
2023-04-26T06:25:22.580Z,10.60
2023-04-26T06:27:49.591Z,6.70
2023-04-26T06:30:17.027Z,8.80
2023-04-26T06:32:47.136Z,14.00
2023-04-26T06:35:14.434Z,12.50
2023-04-26T06:37:42.289Z,11.30
2023-04-26T06:40:11.260Z,9.70
2023-04-26T06:42:38.390Z,9.50
2023-04-26T06:45:28.364Z,10.40
2023-04-26T06:47:55.452Z,10.50
2023-04-26T06:50:24.168Z,6.90
2023-04-26T06:52:51.599Z,6.50
2023-04-26T06:55:19.134Z,6.90
2023-04-26T06:57:46.053Z,9.20
2023-04-26T07:00:13.833Z,8.20
2023-04-26T07:02:41.560Z,8.50
2023-04-26T07:05:08.985Z,8.00
2023-04-26T07:07:36.787Z,14.80
2023-04-26T07:10:04.139Z,10.20
2023-04-26T07:12:31.324Z,8.30
2023-04-26T07:14:58.507Z,8.10
2023-04-26T07:17:25.422Z,10.30
2023-04-26T07:19:52.536Z,14.90
2023-04-26T07:22:20.109Z,12.90
2023-04-26T07:24:46.948Z,15.70
2023-04-26T07:27:13.810Z,11.00
2023-04-26T07:29:40.773Z,8.50
2023-04-26T07:32:07.653Z,15.20
2023-04-26T07:34:34.476Z,9.80
2023-04-26T07:37:01.652Z,18.50
2023-04-26T07:39:28.492Z,9.30
2023-04-26T07:41:55.809Z,11.80
2023-04-26T07:44:22.711Z,18.70
2023-04-26T07:46:49.625Z,13.40
2023-04-26T07:49:16.452Z,9.30
2023-04-26T07:51:44.273Z,12.70
2023-04-26T07:54:11.573Z,10.50
2023-04-26T07:56:38.444Z,10.40
2023-04-26T07:59:05.341Z,12.40
2023-04-26T08:01:32.195Z,10.10
2023-04-26T08:03:59.484Z,14.50
2023-04-26T08:06:27.800Z,11.00
2023-04-26T08:08:54.657Z,9.70
2023-04-26T08:11:21.967Z,8.70
2023-04-26T08:13:49.042Z,9.90
2023-04-26T08:16:15.976Z,13.20
2023-04-26T08:18:45.366Z,6.80
2023-04-26T08:21:13.548Z,9.90
2023-04-26T08:23:40.902Z,9.40
2023-04-26T08:26:07.906Z,11.80
2023-04-26T08:28:35.978Z,10.40
2023-04-26T08:31:02.995Z,9.20
2023-04-26T08:33:29.971Z,9.50
2023-04-26T08:35:56.956Z,10.50
2023-04-26T08:38:24.848Z,10.40
2023-04-26T08:40:51.875Z,9.60
2023-04-26T08:43:18.746Z,7.70
2023-04-26T08:45:49.289Z,10.00
2023-04-26T08:48:18.362Z,10.00
2023-04-26T08:50:46.806Z,11.70
2023-04-26T08:53:15.122Z,7.90
2023-04-26T08:55:42.961Z,11.40
2023-04-26T08:58:11.021Z,11.00
2023-04-26T09:00:37.906Z,9.00
2023-04-26T09:03:04.965Z,14.90
2023-04-26T09:05:33.476Z,8.00
2023-04-26T09:08:02.283Z,7.80
2023-04-26T09:10:29.542Z,8.10
2023-04-26T09:12:56.639Z,10.60
2023-04-26T09:15:24.694Z,8.90
2023-04-26T09:17:52.363Z,10.30
2023-04-26T09:20:24.373Z,10.40
2023-04-26T09:23:08.818Z,8.30
2023-04-26T09:25:35.800Z,5.60
2023-04-26T09:28:03.944Z,8.60
2023-04-26T09:30:31.431Z,9.60
2023-04-26T09:33:07.263Z,8.40
2023-04-26T09:35:38.865Z,8.90
2023-04-26T09:38:12.313Z,6.20
2023-04-26T09:40:44.438Z,7.70
2023-04-26T09:43:13.043Z,6.20
2023-04-26T09:45:51.502Z,5.90
2023-04-26T09:48:32.232Z,8.60
2023-04-26T09:51:00.262Z,7.70
2023-04-26T09:53:37.065Z,10.20
2023-04-26T09:56:11.483Z,8.60
2023-04-26T09:58:58.316Z,10.30
2023-04-26T10:01:26.591Z,9.80
2023-04-26T10:03:53.876Z,7.70
2023-04-26T10:06:20.962Z,7.10
2023-04-26T10:08:47.865Z,7.20
2023-04-26T10:11:14.794Z,6.30
2023-04-26T10:13:42.232Z,7.80
2023-04-26T10:16:10.323Z,10.20
2023-04-26T10:18:37.537Z,10.80
2023-04-26T10:21:11.775Z,8.10
2023-04-26T10:23:38.923Z,10.70
2023-04-26T10:26:05.814Z,9.00
2023-04-26T10:28:45.255Z,10.70
2023-04-26T10:31:12.159Z,9.60
2023-04-26T10:33:39.439Z,10.70
2023-04-26T10:36:07.151Z,8.80
2023-04-26T10:38:35.263Z,10.70
2023-04-26T10:41:27.837Z,9.60
2023-04-26T10:43:54.937Z,14.90
2023-04-26T10:46:39.665Z,7.50
2023-04-26T10:49:17.171Z,6.40
2023-04-26T10:52:14.849Z,7.80
2023-04-26T10:54:46.510Z,7.40
2023-04-26T10:57:18.594Z,8.10
2023-04-26T11:00:13.278Z,7.30
2023-04-26T11:02:53.421Z,8.80
2023-04-26T11:05:32.977Z,8.90
2023-04-26T11:08:32.412Z,10.90
2023-04-26T11:11:02.355Z,9.40
2023-04-26T11:13:33.101Z,10.40
2023-04-26T11:16:07.710Z,10.20
2023-04-26T11:21:01.946Z,8.30
2023-04-26T11:23:30.100Z,6.50
2023-04-26T11:26:02.950Z,7.60
2023-04-26T11:28:34.630Z,9.30
2023-04-26T11:31:04.300Z,6.80
2023-04-26T11:33:34.485Z,12.00
2023-04-26T11:36:01.996Z,6.60
2023-04-26T11:38:29.384Z,7.10
2023-04-26T11:40:57.574Z,10.60
2023-04-26T11:43:37.910Z,8.20
2023-04-26T11:46:06.901Z,11.10
2023-04-26T11:48:35.059Z,9.20
2023-04-26T11:51:03.868Z,9.50
2023-04-26T11:53:41.572Z,5.40
2023-04-26T11:56:18.975Z,8.50
2023-04-26T11:58:47.198Z,9.30
2023-04-26T12:01:20.787Z,9.50
2023-04-26T12:03:50.632Z,11.80
2023-04-26T12:06:18.224Z,9.40
2023-04-26T12:08:51.572Z,8.00
2023-04-26T12:11:18.679Z,11.70
2023-04-26T12:13:46.337Z,8.50
2023-04-26T12:16:25.681Z,6.30
2023-04-26T12:18:53.972Z,7.90
2023-04-26T12:21:20.974Z,6.80
2023-04-26T12:23:48.317Z,7.60
2023-04-26T12:26:15.466Z,6.10
2023-04-26T12:28:42.478Z,8.20
2023-04-26T12:31:09.488Z,8.50
2023-04-26T12:33:36.617Z,7.80
2023-04-26T12:36:10.445Z,7.20
2023-04-26T12:38:37.837Z,6.80
2023-04-26T12:41:05.454Z,7.40
2023-04-26T12:43:32.349Z,10.20
2023-04-26T12:45:59.270Z,8.70
2023-04-26T12:48:26.319Z,10.80
2023-04-26T12:50:53.269Z,9.50
2023-04-26T12:53:20.316Z,14.10
2023-04-26T12:55:47.236Z,7.90
2023-04-26T12:58:14.359Z,7.90
2023-04-26T13:00:43.981Z,8.70
2023-04-26T13:03:14.880Z,10.40
2023-04-26T13:05:42.029Z,11.30
2023-04-26T13:08:09.061Z,11.00
2023-04-26T13:10:36.028Z,11.30
2023-04-26T13:13:02.928Z,10.80
2023-04-26T13:15:30.128Z,11.80
2023-04-26T13:17:57.066Z,7.50
2023-04-26T13:20:25.985Z,9.60
2023-04-26T13:22:54.086Z,9.00
2023-04-26T13:25:21.017Z,10.20
2023-04-26T13:27:47.844Z,10.30
2023-04-26T13:30:14.871Z,10.20
2023-04-26T13:32:41.855Z,12.10
2023-04-26T13:35:09.181Z,17.40
2023-04-26T13:37:36.387Z,9.60
2023-04-26T13:40:04.462Z,10.10
2023-04-26T13:42:32.569Z,10.00
2023-04-26T13:45:00.279Z,8.20
2023-04-26T13:47:28.146Z,10.80
2023-04-26T13:49:55.132Z,12.40
2023-04-26T13:52:22.352Z,13.90
2023-04-26T13:54:55.587Z,11.80
2023-04-26T13:57:22.449Z,10.80
2023-04-26T13:59:49.438Z,14.30
2023-04-26T14:02:16.441Z,9.20
2023-04-26T14:04:43.548Z,12.90
2023-04-26T14:07:11.130Z,10.10
2023-04-26T14:09:38.030Z,9.60
2023-04-26T14:12:08.695Z,8.40
2023-04-26T14:14:37.122Z,10.50
2023-04-26T14:17:03.992Z,12.40
2023-04-26T14:19:31.410Z,8.90
2023-04-26T14:21:58.318Z,10.00
2023-04-26T14:24:25.226Z,8.30
2023-04-26T14:26:52.127Z,8.20
2023-04-26T14:29:19.300Z,13.80
2023-04-26T14:31:46.440Z,10.70
2023-04-26T14:34:13.527Z,12.90
2023-04-26T14:36:40.851Z,11.40
2023-04-26T14:39:07.945Z,8.60
2023-04-26T14:41:42.899Z,10.30
2023-04-26T14:44:12.917Z,11.20
2023-04-26T14:46:39.871Z,9.50
2023-04-26T14:49:06.848Z,9.60
2023-04-26T14:51:33.807Z,8.30
2023-04-26T14:54:00.972Z,8.50
2023-04-26T14:56:33.252Z,12.40
2023-04-26T14:59:03.181Z,9.30
2023-04-26T15:01:30.868Z,8.50
2023-04-26T15:04:00.086Z,7.90
2023-04-26T15:06:27.937Z,7.40
2023-04-26T15:08:54.852Z,11.20
2023-04-26T15:11:21.754Z,10.70
2023-04-26T15:13:49.357Z,6.90
2023-04-26T15:16:16.971Z,8.00
2023-04-26T15:18:44.306Z,8.30
2023-04-26T15:21:17.023Z,8.00
2023-04-26T15:23:44.243Z,8.20
2023-04-26T15:26:11.427Z,7.30
2023-04-26T15:28:38.527Z,6.90
2023-04-26T15:31:06.350Z,5.90
2023-04-26T15:33:33.347Z,11.50
2023-04-26T15:36:00.310Z,9.40
2023-04-26T15:38:27.425Z,8.70
2023-04-26T15:40:54.989Z,10.20
2023-04-26T15:43:22.172Z,13.20
2023-04-26T15:45:49.875Z,7.70
2023-04-26T15:48:17.083Z,8.10
2023-04-26T15:50:44.146Z,10.10
2023-04-26T15:53:11.181Z,8.80
2023-04-26T15:55:38.133Z,9.80
2023-04-26T15:58:04.996Z,12.10
2023-04-26T16:00:32.655Z,8.60
2023-04-26T16:02:59.715Z,10.60
2023-04-26T16:05:26.967Z,8.90
2023-04-26T16:07:54.018Z,9.10
2023-04-26T16:10:21.295Z,9.00
2023-04-26T16:12:48.206Z,10.20
2023-04-26T16:15:15.180Z,8.70
2023-04-26T16:17:42.092Z,11.60
2023-04-26T16:20:10.469Z,9.30
2023-04-26T16:22:37.599Z,8.60
2023-04-26T16:25:07.119Z,10.30
2023-04-26T16:27:34.038Z,9.00
2023-04-26T16:30:01.018Z,10.60
2023-04-26T16:32:28.276Z,11.10
2023-04-26T16:34:55.192Z,11.40
2023-04-26T16:37:22.151Z,8.30
2023-04-26T16:39:49.202Z,10.70
2023-04-26T16:42:16.464Z,8.00
2023-04-26T16:44:43.405Z,19.00
2023-04-26T16:47:10.371Z,10.30
2023-04-26T16:49:37.230Z,11.70
2023-04-26T16:52:04.161Z,12.80
2023-04-26T16:54:31.112Z,10.20
2023-04-26T16:56:58.442Z,13.40
2023-04-26T16:59:25.390Z,13.20
2023-04-26T17:01:53.360Z,15.00
2023-04-26T17:04:20.698Z,13.90
2023-04-26T17:06:47.810Z,14.10
2023-04-26T17:09:14.934Z,15.60
2023-04-26T17:11:43.748Z,14.50
2023-04-26T17:14:11.010Z,12.40
2023-04-26T17:16:38.126Z,15.20
2023-04-26T17:19:05.128Z,13.80
2023-04-26T17:21:32.028Z,13.50
2023-04-26T17:23:59.030Z,11.50
2023-04-26T17:26:26.620Z,14.00
2023-04-26T17:28:54.773Z,15.70
2023-04-26T17:31:22.162Z,13.40
2023-04-26T17:33:49.084Z,12.80
2023-04-26T17:36:16.369Z,10.80
2023-04-26T17:38:43.810Z,10.40
2023-04-26T17:41:14.030Z,10.50
2023-04-26T17:43:40.896Z,11.10
2023-04-26T17:46:08.103Z,14.10
2023-04-26T17:48:35.215Z,14.50
2023-04-26T17:51:02.211Z,11.20
2023-04-26T17:53:29.605Z,10.70
2023-04-26T17:55:56.975Z,13.30
2023-04-26T17:58:23.920Z,12.40
2023-04-26T18:00:51.171Z,15.10
2023-04-26T18:03:20.652Z,11.00
2023-04-26T18:05:48.287Z,10.40
2023-04-26T18:08:15.609Z,10.60
2023-04-26T18:10:42.669Z,11.20
2023-04-26T18:13:11.336Z,13.10
2023-04-26T18:15:38.934Z,13.10
2023-04-26T18:18:08.198Z,15.70
2023-04-26T18:20:37.058Z,10.40
2023-04-26T18:23:04.384Z,12.80
2023-04-26T18:25:31.339Z,13.00
2023-04-26T18:27:58.164Z,11.80
2023-04-26T18:30:25.038Z,14.40
2023-04-26T18:32:53.103Z,13.10
2023-04-26T18:35:20.476Z,12.80
2023-04-26T18:37:48.720Z,12.30
2023-04-26T18:40:15.624Z,13.20
2023-04-26T18:42:45.082Z,14.50
2023-04-26T18:45:12.902Z,14.10
2023-04-26T18:47:39.862Z,13.90
2023-04-26T18:50:07.495Z,12.80
2023-04-26T18:52:34.928Z,15.30
2023-04-26T18:55:01.987Z,16.50
2023-04-26T18:57:28.884Z,20.20
2023-04-26T18:59:57.390Z,24.50
2023-04-26T19:02:24.373Z,22.50
2023-04-26T19:04:51.376Z,25.30
2023-04-26T19:07:18.361Z,18.50
2023-04-26T19:09:53.636Z,15.20
2023-04-26T19:12:21.319Z,16.20
2023-04-26T19:14:48.218Z,16.70
2023-04-26T19:17:15.091Z,18.80
2023-04-26T19:19:42.143Z,17.70
2023-04-26T19:22:09.019Z,19.00
2023-04-26T19:24:36.049Z,15.70
2023-04-26T19:27:03.696Z,16.00
2023-04-26T19:29:30.643Z,15.50
2023-04-26T19:31:59.674Z,14.10
2023-04-26T19:34:26.927Z,18.00
2023-04-26T19:36:53.757Z,17.40
2023-04-26T19:39:22.679Z,15.20
2023-04-26T19:41:51.008Z,13.40
2023-04-26T19:44:17.879Z,12.60
2023-04-26T19:46:44.843Z,13.40
2023-04-26T19:49:12.034Z,10.90
2023-04-26T19:51:38.992Z,13.90
2023-04-26T19:54:05.917Z,13.80
2023-04-26T19:56:32.835Z,16.30
2023-04-26T19:59:00.138Z,14.60
2023-04-26T20:01:27.856Z,16.00
2023-04-26T20:03:55.050Z,14.60
2023-04-26T20:06:22.145Z,11.10
2023-04-26T20:08:49.024Z,12.80
2023-04-26T20:11:16.885Z,13.00
2023-04-26T20:13:44.075Z,12.20
2023-04-26T20:16:11.054Z,14.20
2023-04-26T20:18:38.118Z,14.30
2023-04-26T20:21:05.243Z,11.90
2023-04-26T20:23:32.626Z,12.00
2023-04-26T20:25:59.486Z,10.50
2023-04-26T20:28:26.868Z,10.00
2023-04-26T20:30:53.719Z,10.80
2023-04-26T20:33:20.554Z,10.70
2023-04-26T20:35:47.493Z,10.30
2023-04-26T20:38:14.617Z,13.10
2023-04-26T20:40:41.596Z,10.10
2023-04-26T20:43:08.561Z,11.10
2023-04-26T20:45:35.792Z,10.70
2023-04-26T20:48:02.727Z,10.40
2023-04-26T20:50:29.849Z,12.40
2023-04-26T20:52:57.202Z,11.30
2023-04-26T20:55:24.102Z,12.00
2023-04-26T20:57:51.068Z,10.60
2023-04-26T21:00:18.280Z,13.80
2023-04-26T21:02:45.333Z,13.30
2023-04-26T21:05:12.442Z,13.70
2023-04-26T21:07:39.413Z,12.30
2023-04-26T21:10:06.713Z,10.90
2023-04-26T21:12:34.454Z,12.00
2023-04-26T21:15:01.376Z,13.60
2023-04-26T21:17:28.260Z,12.60
2023-04-26T21:19:55.111Z,12.70
2023-04-26T21:22:21.952Z,11.80
2023-04-26T21:24:51.132Z,11.90
2023-04-26T21:27:18.136Z,5.70
2023-04-26T21:29:45.003Z,4.10
2023-04-26T21:32:11.811Z,4.00
2023-04-26T21:34:38.725Z,4.40
2023-04-26T21:37:05.782Z,3.10
2023-04-26T21:39:32.672Z,5.50
2023-04-26T21:41:59.513Z,4.50
2023-04-26T21:44:26.394Z,1.70
2023-04-26T21:46:53.472Z,1.70
2023-04-26T21:49:20.659Z,2.40
2023-04-26T21:51:47.589Z,1.00
2023-04-26T21:54:14.509Z,1.10
2023-04-26T21:56:41.443Z,0.60
2023-04-26T21:59:10.515Z,0.70
2023-04-26T22:01:37.675Z,0.50
2023-04-26T22:04:05.014Z,0.90
2023-04-26T22:06:32.057Z,1.10
2023-04-26T22:08:58.907Z,0.90
2023-04-26T22:11:25.794Z,0.70
2023-04-26T22:13:52.617Z,0.50
2023-04-26T22:16:19.540Z,0.70
2023-04-26T22:18:46.686Z,0.80
2023-04-26T22:21:13.523Z,0.60
2023-04-26T22:23:40.326Z,0.50
2023-04-26T22:26:07.206Z,0.60
2023-04-26T22:28:34.069Z,0.70
2023-04-26T22:31:00.983Z,1.40
2023-04-26T22:33:28.016Z,2.10
2023-04-26T22:35:58.087Z,1.10
2023-04-26T22:38:25.460Z,1.00
2023-04-26T22:40:52.768Z,1.10
2023-04-26T22:43:19.613Z,1.70
2023-04-26T22:45:46.529Z,0.80
2023-04-26T22:48:14.154Z,1.00
2023-04-26T22:50:41.060Z,3.70
2023-04-26T22:53:08.126Z,1.00
2023-04-26T22:55:34.986Z,1.40
2023-04-26T22:58:01.813Z,0.90
2023-04-26T23:00:28.789Z,1.00
2023-04-26T23:02:55.749Z,4.20
2023-04-26T23:05:22.788Z,0.90
2023-04-26T23:07:49.644Z,4.20
2023-04-26T23:10:16.706Z,1.10
2023-04-26T23:12:43.648Z,0.90
2023-04-26T23:15:11.755Z,1.10
2023-04-26T23:17:39.013Z,2.60
2023-04-26T23:20:12.901Z,1.10
2023-04-26T23:22:43.433Z,0.80
2023-04-26T23:25:10.448Z,0.60
2023-04-26T23:27:37.752Z,0.50
2023-04-26T23:30:05.193Z,1.30
2023-04-26T23:32:32.074Z,0.70
2023-04-26T23:34:59.209Z,0.60
2023-04-26T23:37:26.067Z,0.90
2023-04-26T23:39:52.853Z,0.80
2023-04-26T23:42:19.729Z,1.40
2023-04-26T23:44:46.970Z,1.80
2023-04-26T23:47:13.980Z,0.80
2023-04-26T23:49:40.906Z,0.80
2023-04-26T23:52:07.849Z,0.60
2023-04-26T23:54:34.698Z,0.80
2023-04-26T23:57:02.165Z,0.60
2023-04-26T23:59:29.075Z,0.50
